createdAt,value
2023-05-01T00:00:58.650Z,984.42
2023-05-01T00:01:58.612Z,984.41
2023-05-01T00:02:58.745Z,984.41
2023-05-01T00:03:58.882Z,984.38
2023-05-01T00:04:58.700Z,984.42
2023-05-01T00:05:58.634Z,984.35
2023-05-01T00:06:58.576Z,984.32
2023-05-01T00:07:58.611Z,984.31
2023-05-01T00:08:58.550Z,984.23
2023-05-01T00:09:58.856Z,984.25
2023-05-01T00:10:58.548Z,984.27
2023-05-01T00:11:58.547Z,984.21
2023-05-01T00:12:58.516Z,984.20
2023-05-01T00:13:58.497Z,984.21
2023-05-01T00:14:58.488Z,984.13
2023-05-01T00:15:58.526Z,984.12
2023-05-01T00:16:58.582Z,984.11
2023-05-01T00:17:58.597Z,984.11
2023-05-01T00:18:58.458Z,984.15
2023-05-01T00:19:58.747Z,984.16
2023-05-01T00:20:58.436Z,984.15
2023-05-01T00:21:58.414Z,984.15
2023-05-01T00:22:58.405Z,984.13
2023-05-01T00:23:58.398Z,984.17
2023-05-01T00:24:58.401Z,984.11
2023-05-01T00:25:58.396Z,984.11
2023-05-01T00:26:58.377Z,984.15
2023-05-01T00:27:58.383Z,984.03
2023-05-01T00:28:58.407Z,984.13
2023-05-01T00:29:58.598Z,984.11
2023-05-01T00:30:58.346Z,984.06
2023-05-01T00:31:58.373Z,984.05
2023-05-01T00:32:58.356Z,984.00
2023-05-01T00:33:58.300Z,984.04
2023-05-01T00:34:58.292Z,984.04
2023-05-01T00:35:58.290Z,984.03
2023-05-01T00:36:58.268Z,984.04
2023-05-01T00:37:58.298Z,984.03
2023-05-01T00:38:58.249Z,984.00
2023-05-01T00:39:58.666Z,983.94
2023-05-01T00:40:58.275Z,983.88
2023-05-01T00:41:58.217Z,983.89
2023-05-01T00:42:58.204Z,983.89
2023-05-01T00:43:58.205Z,983.92
2023-05-01T00:44:58.204Z,983.92
2023-05-01T00:45:58.270Z,983.94
2023-05-01T00:46:58.205Z,983.84
2023-05-01T00:47:58.228Z,983.97
2023-05-01T00:48:58.147Z,983.89
2023-05-01T00:49:58.255Z,983.87
2023-05-01T00:50:58.139Z,983.86
2023-05-01T00:51:58.140Z,983.85
2023-05-01T00:52:58.106Z,983.85
2023-05-01T00:53:58.095Z,983.86
2023-05-01T00:54:58.091Z,983.83
2023-05-01T00:55:58.091Z,983.80
2023-05-01T00:56:58.074Z,983.76
2023-05-01T00:57:58.060Z,983.82
2023-05-01T00:58:58.056Z,983.82
2023-05-01T00:59:58.250Z,983.79
2023-05-01T01:00:58.047Z,983.76
2023-05-01T01:01:58.015Z,983.64
2023-05-01T01:02:58.064Z,983.70
2023-05-01T01:03:58.017Z,983.68
2023-05-01T01:04:58.319Z,983.70
2023-05-01T01:05:58.036Z,983.65
2023-05-01T01:06:57.975Z,983.60
2023-05-01T01:07:57.955Z,983.61
2023-05-01T01:08:57.937Z,983.56
2023-05-01T01:09:58.202Z,983.53
2023-05-01T01:10:57.931Z,983.50
2023-05-01T01:11:57.919Z,983.53
2023-05-01T01:12:57.906Z,983.52
2023-05-01T01:13:57.896Z,983.47
2023-05-01T01:14:57.885Z,983.44
2023-05-01T01:15:57.906Z,983.46
2023-05-01T01:16:57.892Z,983.45
2023-05-01T01:17:57.860Z,983.46
2023-05-01T01:18:57.891Z,983.48
2023-05-01T01:19:58.017Z,983.36
2023-05-01T01:20:57.861Z,983.42
2023-05-01T01:21:57.812Z,983.37
2023-05-01T01:22:57.883Z,983.39
2023-05-01T01:23:57.866Z,983.39
2023-05-01T01:24:57.780Z,983.42
2023-05-01T01:25:57.958Z,983.39
2023-05-01T01:26:57.759Z,983.42
2023-05-01T01:27:57.750Z,983.39
2023-05-01T01:28:57.751Z,983.34
2023-05-01T01:29:57.970Z,983.38
2023-05-01T01:30:57.771Z,983.32
2023-05-01T01:31:57.716Z,983.27
2023-05-01T01:32:57.761Z,983.28
2023-05-01T01:33:57.689Z,983.29
2023-05-01T01:34:57.678Z,983.30
2023-05-01T01:35:57.684Z,983.30
2023-05-01T01:36:57.663Z,983.27
2023-05-01T01:37:57.666Z,983.25
2023-05-01T01:38:57.641Z,983.28
2023-05-01T01:39:57.886Z,983.28
2023-05-01T01:40:57.651Z,983.29
2023-05-01T01:41:57.613Z,983.21
2023-05-01T01:42:57.602Z,983.25
2023-05-01T01:43:57.596Z,983.24
2023-05-01T01:44:57.584Z,983.23
2023-05-01T01:45:57.592Z,983.22
2023-05-01T01:46:57.558Z,983.18
2023-05-01T01:47:57.584Z,983.18
2023-05-01T01:48:57.540Z,983.14
2023-05-01T01:49:57.768Z,983.12
2023-05-01T01:50:57.534Z,983.13
2023-05-01T01:51:57.513Z,983.11
2023-05-01T01:52:57.501Z,983.15
2023-05-01T01:53:57.488Z,983.06
2023-05-01T01:54:58.498Z,983.04
2023-05-01T01:55:57.487Z,982.98
2023-05-01T01:56:57.461Z,983.03
2023-05-01T01:57:57.456Z,983.02
2023-05-01T01:58:57.452Z,983.03
2023-05-01T01:59:57.789Z,982.93
2023-05-01T02:00:57.434Z,982.95
2023-05-01T02:01:57.548Z,982.90
2023-05-01T02:02:57.525Z,982.96
2023-05-01T02:03:57.495Z,982.88
2023-05-01T02:04:57.436Z,982.90
2023-05-01T02:05:57.389Z,982.91
2023-05-01T02:06:57.368Z,982.86
2023-05-01T02:07:57.374Z,982.89
2023-05-01T02:08:57.352Z,982.88
2023-05-01T02:09:57.573Z,982.87
2023-05-01T02:10:58.860Z,982.87
2023-05-01T02:11:57.325Z,982.84
2023-05-01T02:12:57.315Z,982.79
2023-05-01T02:13:57.327Z,982.80
2023-05-01T02:14:57.304Z,982.83
2023-05-01T02:15:57.390Z,982.77
2023-05-01T02:16:57.269Z,982.77
2023-05-01T02:17:57.311Z,982.80
2023-05-01T02:18:57.263Z,982.73
2023-05-01T02:19:57.471Z,982.79
2023-05-01T02:20:57.256Z,982.72
2023-05-01T02:21:57.240Z,982.71
2023-05-01T02:22:57.215Z,982.65
2023-05-01T02:23:57.210Z,982.68
2023-05-01T02:24:57.217Z,982.67
2023-05-01T02:25:57.211Z,982.68
2023-05-01T02:26:57.195Z,982.62
2023-05-01T02:27:57.166Z,982.58
2023-05-01T02:28:57.153Z,982.63
2023-05-01T02:29:57.387Z,982.55
2023-05-01T02:30:57.157Z,982.58
2023-05-01T02:31:57.316Z,982.53
2023-05-01T02:32:57.153Z,982.57
2023-05-01T02:33:57.112Z,982.64
2023-05-01T02:34:57.094Z,982.53
2023-05-01T02:35:57.097Z,982.47
2023-05-01T02:36:57.088Z,982.49
2023-05-01T02:37:57.067Z,982.43
2023-05-01T02:38:57.071Z,982.45
2023-05-01T02:39:57.245Z,982.49
2023-05-01T02:40:57.155Z,982.54
2023-05-01T02:41:57.021Z,982.52
2023-05-01T02:42:57.029Z,982.55
2023-05-01T02:43:57.008Z,982.49
2023-05-01T02:44:57.006Z,982.49
2023-05-01T02:45:57.020Z,982.50
2023-05-01T02:46:57.065Z,982.49
2023-05-01T02:47:57.024Z,982.48
2023-05-01T02:48:56.958Z,982.50
2023-05-01T02:49:57.161Z,982.48
2023-05-01T02:50:56.951Z,982.46
2023-05-01T02:51:56.943Z,982.48
2023-05-01T02:52:56.924Z,982.42
2023-05-01T02:53:56.910Z,982.42
2023-05-01T02:54:56.889Z,982.47
2023-05-01T02:55:57.895Z,982.38
2023-05-01T02:56:56.894Z,982.42
2023-05-01T02:57:56.869Z,982.42
2023-05-01T02:58:56.877Z,982.37
2023-05-01T02:59:57.088Z,982.37
2023-05-01T03:00:56.864Z,982.41
2023-05-01T03:01:56.840Z,982.36
2023-05-01T03:02:56.933Z,982.38
2023-05-01T03:03:56.841Z,982.35
2023-05-01T03:04:56.800Z,982.34
2023-05-01T03:05:56.824Z,982.25
2023-05-01T03:06:56.793Z,982.27
2023-05-01T03:07:56.767Z,982.31
2023-05-01T03:08:56.760Z,982.30
2023-05-01T03:09:57.051Z,982.31
2023-05-01T03:10:56.759Z,982.32
2023-05-01T03:11:56.736Z,982.25
2023-05-01T03:12:56.721Z,982.21
2023-05-01T03:13:56.722Z,982.20
2023-05-01T03:14:56.698Z,982.16
2023-05-01T03:15:56.725Z,982.21
2023-05-01T03:16:56.687Z,982.14
2023-05-01T03:17:56.757Z,982.14
2023-05-01T03:18:56.654Z,982.22
2023-05-01T03:19:56.957Z,982.17
2023-05-01T03:20:56.666Z,982.20
2023-05-01T03:21:56.633Z,982.21
2023-05-01T03:22:56.625Z,982.14
2023-05-01T03:23:56.618Z,982.17
2023-05-01T03:24:56.603Z,982.13
2023-05-01T03:25:56.604Z,982.12
2023-05-01T03:26:56.600Z,982.15
2023-05-01T03:27:56.573Z,982.16
2023-05-01T03:28:56.567Z,982.18
2023-05-01T03:29:56.731Z,982.14
2023-05-01T03:30:56.559Z,982.14
2023-05-01T03:31:56.544Z,982.14
2023-05-01T03:32:56.634Z,982.10
2023-05-01T03:33:56.519Z,982.10
2023-05-01T03:34:56.557Z,982.06
2023-05-01T03:35:56.508Z,982.12
2023-05-01T03:36:56.497Z,982.02
2023-05-01T03:37:56.513Z,982.06
2023-05-01T03:38:56.462Z,982.02
2023-05-01T03:39:56.695Z,982.02
2023-05-01T03:40:56.457Z,982.05
2023-05-01T03:41:56.447Z,982.04
2023-05-01T03:42:56.424Z,982.05
2023-05-01T03:43:56.413Z,982.03
2023-05-01T03:44:56.413Z,982.03
2023-05-01T03:45:56.425Z,981.99
2023-05-01T03:46:56.388Z,982.01
2023-05-01T03:47:56.425Z,981.97
2023-05-01T03:48:56.373Z,981.98
2023-05-01T03:49:56.521Z,982.01
2023-05-01T03:50:57.355Z,981.98
2023-05-01T03:51:56.336Z,982.02
2023-05-01T03:52:56.322Z,982.01
2023-05-01T03:53:56.319Z,981.99
2023-05-01T03:54:56.301Z,982.03
2023-05-01T03:55:56.305Z,982.02
2023-05-01T03:56:56.278Z,982.03
2023-05-01T03:57:56.274Z,982.01
2023-05-01T03:58:56.266Z,982.01
2023-05-01T03:59:56.579Z,981.99
2023-05-01T04:00:56.259Z,981.98
2023-05-01T04:01:56.283Z,981.94
2023-05-01T04:02:57.436Z,981.94
2023-05-01T04:03:56.308Z,981.94
2023-05-01T04:04:56.201Z,982.00
2023-05-01T04:05:56.289Z,981.97
2023-05-01T04:06:56.192Z,981.94
2023-05-01T04:07:56.180Z,981.93
2023-05-01T04:08:56.185Z,981.94
2023-05-01T04:09:56.338Z,981.91
2023-05-01T04:10:56.151Z,981.94
2023-05-01T04:11:56.134Z,981.94
2023-05-01T04:12:56.124Z,981.97
2023-05-01T04:13:56.119Z,981.99
2023-05-01T04:14:56.123Z,981.96
2023-05-01T04:15:56.187Z,981.97
2023-05-01T04:16:56.086Z,981.95
2023-05-01T04:17:56.103Z,981.89
2023-05-01T04:18:56.073Z,981.89
2023-05-01T04:19:56.453Z,981.92
2023-05-01T04:20:56.052Z,981.91
2023-05-01T04:21:57.042Z,981.86
2023-05-01T04:22:56.045Z,981.83
2023-05-01T04:23:56.022Z,981.84
2023-05-01T04:24:56.031Z,981.78
2023-05-01T04:25:56.014Z,981.89
2023-05-01T04:26:55.988Z,981.79
2023-05-01T04:27:55.981Z,981.82
2023-05-01T04:28:55.968Z,981.75
2023-05-01T04:29:56.119Z,981.91
2023-05-01T04:30:55.953Z,981.77
2023-05-01T04:31:55.960Z,981.76
2023-05-01T04:32:55.944Z,981.85
2023-05-01T04:33:55.922Z,981.87
2023-05-01T04:34:55.930Z,981.82
2023-05-01T04:35:55.911Z,981.79
2023-05-01T04:36:55.892Z,981.79
2023-05-01T04:37:55.898Z,981.75
2023-05-01T04:38:55.881Z,981.82
2023-05-01T04:39:56.352Z,981.81
2023-05-01T04:40:55.854Z,981.80
2023-05-01T04:41:55.841Z,981.79
2023-05-01T04:42:55.825Z,981.80
2023-05-01T04:43:55.825Z,981.82
2023-05-01T04:44:55.820Z,981.78
2023-05-01T04:45:55.818Z,981.83
2023-05-01T04:46:55.804Z,981.82
2023-05-01T04:47:55.828Z,981.86
2023-05-01T04:48:55.780Z,981.84
2023-05-01T04:49:55.967Z,981.85
2023-05-01T04:50:55.764Z,981.87
2023-05-01T04:51:55.732Z,981.86
2023-05-01T04:52:55.746Z,981.85
2023-05-01T04:53:55.735Z,981.84
2023-05-01T04:54:55.714Z,981.79
2023-05-01T04:55:55.733Z,981.83
2023-05-01T04:56:55.692Z,981.83
2023-05-01T04:57:55.687Z,981.82
2023-05-01T04:58:55.687Z,981.79
2023-05-01T04:59:55.961Z,981.75
2023-05-01T05:00:55.665Z,981.74
2023-05-01T05:01:55.700Z,981.72
2023-05-01T05:02:55.704Z,981.79
2023-05-01T05:03:55.691Z,981.79
2023-05-01T05:04:55.616Z,981.75
2023-05-01T05:05:55.617Z,981.77
2023-05-01T05:06:55.622Z,981.80
2023-05-01T05:07:55.584Z,981.75
2023-05-01T05:08:55.573Z,981.80
2023-05-01T05:09:55.848Z,981.72
2023-05-01T05:10:55.565Z,981.70
2023-05-01T05:11:55.551Z,981.72
2023-05-01T05:12:55.552Z,981.75
2023-05-01T05:13:55.530Z,981.73
2023-05-01T05:14:55.523Z,981.71
2023-05-01T05:15:55.566Z,981.75
2023-05-01T05:16:55.541Z,981.80
2023-05-01T05:17:56.755Z,981.80
2023-05-01T05:18:56.480Z,981.80
2023-05-01T05:19:55.662Z,981.77
2023-05-01T05:20:55.473Z,981.82
2023-05-01T05:21:55.449Z,981.74
2023-05-01T05:22:55.443Z,981.75
2023-05-01T05:23:55.435Z,981.74
2023-05-01T05:24:55.420Z,981.79
2023-05-01T05:25:55.433Z,981.75
2023-05-01T05:26:55.396Z,981.84
2023-05-01T05:27:55.426Z,981.80
2023-05-01T05:28:55.377Z,981.77
2023-05-01T05:29:55.553Z,981.81
2023-05-01T05:30:55.529Z,981.73
2023-05-01T05:31:55.373Z,981.70
2023-05-01T05:32:55.397Z,981.73
2023-05-01T05:33:55.326Z,981.66
2023-05-01T05:34:55.318Z,981.66
2023-05-01T05:35:55.322Z,981.69
2023-05-01T05:36:55.304Z,981.67
2023-05-01T05:37:56.284Z,981.64
2023-05-01T05:38:55.281Z,981.68
2023-05-01T05:39:55.541Z,981.69
2023-05-01T05:40:55.252Z,981.66
2023-05-01T05:41:55.259Z,981.67
2023-05-01T05:42:55.237Z,981.64
2023-05-01T05:43:55.234Z,981.66
2023-05-01T05:44:55.226Z,981.71
2023-05-01T05:45:55.223Z,981.63
2023-05-01T05:46:56.216Z,981.70
2023-05-01T05:47:55.216Z,981.64
2023-05-01T05:48:55.179Z,981.66
2023-05-01T05:49:55.335Z,981.64
2023-05-01T05:50:55.184Z,981.65
2023-05-01T05:51:55.159Z,981.65
2023-05-01T05:52:55.135Z,981.64
2023-05-01T05:53:55.159Z,981.60
2023-05-01T05:54:55.115Z,981.68
2023-05-01T05:55:55.112Z,981.66
2023-05-01T05:56:55.107Z,981.67
2023-05-01T05:57:55.101Z,981.64
2023-05-01T05:58:55.076Z,981.62
2023-05-01T05:59:55.482Z,981.62
2023-05-01T06:00:55.057Z,981.67
2023-05-01T06:01:55.068Z,981.61
2023-05-01T06:02:55.256Z,981.55
2023-05-01T06:03:55.058Z,981.49
2023-05-01T06:04:55.010Z,981.58
2023-05-01T06:05:55.118Z,981.51
2023-05-01T06:06:55.121Z,981.60
2023-05-01T06:07:54.988Z,981.51
2023-05-01T06:08:54.972Z,981.61
2023-05-01T06:09:55.267Z,981.59
2023-05-01T06:10:54.985Z,981.58
2023-05-01T06:11:54.963Z,981.57
2023-05-01T06:13:03.022Z,981.56
2023-05-01T06:13:55.926Z,981.54
2023-05-01T06:14:54.929Z,981.56
2023-05-01T06:15:54.967Z,981.55
2023-05-01T06:16:54.905Z,981.52
2023-05-01T06:17:54.931Z,981.45
2023-05-01T06:18:54.872Z,981.48
2023-05-01T06:19:55.130Z,981.48
2023-05-01T06:20:54.854Z,981.50
2023-05-01T06:21:54.852Z,981.38
2023-05-01T06:22:54.839Z,981.38
2023-05-01T06:23:54.834Z,981.43
2023-05-01T06:24:54.870Z,981.37
2023-05-01T06:25:54.855Z,981.36
2023-05-01T06:26:54.846Z,981.42
2023-05-01T06:27:54.793Z,981.34
2023-05-01T06:28:54.770Z,981.28
2023-05-01T06:29:55.008Z,981.30
2023-05-01T06:30:54.801Z,981.30
2023-05-01T06:31:54.804Z,981.33
2023-05-01T06:32:54.824Z,981.33
2023-05-01T06:33:54.725Z,981.32
2023-05-01T06:34:54.709Z,981.32
2023-05-01T06:35:54.717Z,981.27
2023-05-01T06:36:54.700Z,981.26
2023-05-01T06:37:54.680Z,981.27
2023-05-01T06:38:54.669Z,981.24
2023-05-01T06:39:55.188Z,981.32
2023-05-01T06:40:54.646Z,981.34
2023-05-01T06:41:54.651Z,981.25
2023-05-01T06:42:54.637Z,981.29
2023-05-01T06:43:54.619Z,981.27
2023-05-01T06:44:54.604Z,981.27
2023-05-01T06:45:54.597Z,981.30
2023-05-01T06:46:54.630Z,981.32
2023-05-01T06:47:54.660Z,981.22
2023-05-01T06:48:54.584Z,981.28
2023-05-01T06:49:54.699Z,981.28
2023-05-01T06:50:54.545Z,981.29
2023-05-01T06:51:54.552Z,981.28
2023-05-01T06:52:54.537Z,981.28
2023-05-01T06:53:54.521Z,981.20
2023-05-01T06:54:54.514Z,981.26
2023-05-01T06:55:54.501Z,981.28
2023-05-01T06:56:54.500Z,981.28
2023-05-01T06:57:54.487Z,981.31
2023-05-01T06:58:54.467Z,981.25
2023-05-01T06:59:54.629Z,981.29
2023-05-01T07:00:54.530Z,981.31
2023-05-01T07:01:54.479Z,981.23
2023-05-01T07:02:54.478Z,981.29
2023-05-01T07:03:54.413Z,981.22
2023-05-01T07:04:54.399Z,981.24
2023-05-01T07:05:54.392Z,981.25
2023-05-01T07:06:54.415Z,981.28
2023-05-01T07:08:01.125Z,981.28
2023-05-01T07:08:56.366Z,981.26
2023-05-01T07:09:54.664Z,981.26
2023-05-01T07:10:54.343Z,981.29
2023-05-01T07:11:54.348Z,981.28
2023-05-01T07:12:54.324Z,981.28
2023-05-01T07:13:54.323Z,981.26
2023-05-01T07:14:54.359Z,981.22
2023-05-01T07:15:54.631Z,981.24
2023-05-01T07:16:55.385Z,981.27
2023-05-01T07:17:54.325Z,981.18
2023-05-01T07:18:54.261Z,981.22
2023-05-01T07:19:54.412Z,981.19
2023-05-01T07:20:54.239Z,981.25
2023-05-01T07:21:54.237Z,981.24
2023-05-01T07:22:54.219Z,981.23
2023-05-01T07:23:54.207Z,981.26
2023-05-01T07:24:54.188Z,981.25
2023-05-01T07:25:54.186Z,981.20
2023-05-01T07:26:54.192Z,981.23
2023-05-01T07:27:54.194Z,981.25
2023-05-01T07:28:54.167Z,981.20
2023-05-01T07:29:54.431Z,981.21
2023-05-01T07:30:54.136Z,981.18
2023-05-01T07:31:54.194Z,981.17
2023-05-01T07:32:54.158Z,981.23
2023-05-01T07:33:54.307Z,981.20
2023-05-01T07:34:55.110Z,981.17
2023-05-01T07:35:54.075Z,981.15
2023-05-01T07:36:54.084Z,981.18
2023-05-01T07:37:54.055Z,981.16
2023-05-01T07:38:54.049Z,981.15
2023-05-01T07:39:54.240Z,981.17
2023-05-01T07:40:54.032Z,981.09
2023-05-01T07:41:54.030Z,981.11
2023-05-01T07:42:54.657Z,981.06
2023-05-01T07:43:55.001Z,981.05
2023-05-01T07:44:53.995Z,981.09
2023-05-01T07:45:53.999Z,981.07
2023-05-01T07:46:53.978Z,981.03
2023-05-01T07:47:53.975Z,981.03
2023-05-01T07:48:53.999Z,981.05
2023-05-01T07:49:54.082Z,981.04
2023-05-01T07:50:53.918Z,981.02
2023-05-01T07:51:53.927Z,981.01
2023-05-01T07:52:53.917Z,980.98
2023-05-01T07:53:53.901Z,980.94
2023-05-01T07:54:53.884Z,980.94
2023-05-01T07:55:53.872Z,980.94
2023-05-01T07:56:53.882Z,980.91
2023-05-01T07:57:53.856Z,980.89
2023-05-01T07:58:53.850Z,980.92
2023-05-01T07:59:54.013Z,980.90
2023-05-01T08:00:53.832Z,980.87
2023-05-01T08:01:53.906Z,980.86
2023-05-01T08:02:53.972Z,980.90
2023-05-01T08:03:53.882Z,980.83
2023-05-01T08:04:53.975Z,980.86
2023-05-01T08:05:53.773Z,980.87
2023-05-01T08:06:53.896Z,980.88
2023-05-01T08:07:53.754Z,980.79
2023-05-01T08:08:53.755Z,980.84
2023-05-01T08:09:53.807Z,980.82
2023-05-01T08:10:53.722Z,980.79
2023-05-01T08:11:53.738Z,980.77
2023-05-01T08:12:53.709Z,980.83
2023-05-01T08:13:53.694Z,980.78
2023-05-01T08:14:53.700Z,980.76
2023-05-01T08:15:53.703Z,980.83
2023-05-01T08:16:53.680Z,980.80
2023-05-01T08:17:53.758Z,980.79
2023-05-01T08:18:53.667Z,980.81
2023-05-01T08:19:53.774Z,980.74
2023-05-01T08:20:53.627Z,980.76
2023-05-01T08:21:53.634Z,980.79
2023-05-01T08:22:53.616Z,980.74
2023-05-01T08:23:53.605Z,980.74
2023-05-01T08:24:53.599Z,980.80
2023-05-01T08:25:53.593Z,980.75
2023-05-01T08:26:53.587Z,980.73
2023-05-01T08:27:53.572Z,980.72
2023-05-01T08:28:53.556Z,980.71
2023-05-01T08:29:53.575Z,980.73
2023-05-01T08:30:53.546Z,980.68
2023-05-01T08:31:53.563Z,980.69
2023-05-01T08:32:53.588Z,980.73
2023-05-01T08:33:53.501Z,980.70
2023-05-01T08:34:53.496Z,980.71
2023-05-01T08:35:53.496Z,980.66
2023-05-01T08:36:53.487Z,980.66
2023-05-01T08:37:53.550Z,980.65
2023-05-01T08:38:53.457Z,980.67
2023-05-01T08:39:53.452Z,980.65
2023-05-01T08:40:53.483Z,980.62
2023-05-01T08:41:53.429Z,980.61
2023-05-01T08:42:53.413Z,980.65
2023-05-01T08:43:53.402Z,980.68
2023-05-01T08:44:53.405Z,980.65
2023-05-01T08:45:53.379Z,980.62
2023-05-01T08:46:53.409Z,980.68
2023-05-01T08:47:53.401Z,980.68
2023-05-01T08:48:53.344Z,980.56
2023-05-01T08:49:53.355Z,980.58
2023-05-01T08:50:53.322Z,980.59
2023-05-01T08:51:53.324Z,980.58
2023-05-01T08:52:54.302Z,980.60
2023-05-01T08:53:53.299Z,980.60
2023-05-01T08:54:53.290Z,980.62
2023-05-01T08:55:53.366Z,980.63
2023-05-01T08:56:53.284Z,980.55
2023-05-01T08:57:53.275Z,980.53
2023-05-01T08:58:53.249Z,980.55
2023-05-01T08:59:53.254Z,980.54
2023-05-01T09:00:53.274Z,980.58
2023-05-01T09:01:53.298Z,980.56
2023-05-01T09:02:53.238Z,980.54
2023-05-01T09:03:53.247Z,980.54
2023-05-01T09:04:53.194Z,980.49
2023-05-01T09:05:53.186Z,980.55
2023-05-01T09:06:53.219Z,980.49
2023-05-01T09:07:53.156Z,980.49
2023-05-01T09:08:53.144Z,980.52
2023-05-01T09:09:53.231Z,980.42
2023-05-01T09:10:53.131Z,980.43
2023-05-01T09:11:53.146Z,980.35
2023-05-01T09:12:53.100Z,980.35
2023-05-01T09:13:53.102Z,980.39
2023-05-01T09:14:53.094Z,980.36
2023-05-01T09:15:53.130Z,980.32
2023-05-01T09:16:53.134Z,980.31
2023-05-01T09:17:53.074Z,980.30
2023-05-01T09:18:53.045Z,980.35
2023-05-01T09:19:53.035Z,980.35
2023-05-01T09:20:53.045Z,980.34
2023-05-01T09:21:53.027Z,980.30
2023-05-01T09:22:53.002Z,980.30
2023-05-01T09:23:52.985Z,980.33
2023-05-01T09:24:52.976Z,980.31
2023-05-01T09:25:52.972Z,980.32
2023-05-01T09:26:52.968Z,980.32
2023-05-01T09:27:52.951Z,980.29
2023-05-01T09:28:52.952Z,980.26
2023-05-01T09:29:52.943Z,980.21
2023-05-01T09:30:52.928Z,980.24
2023-05-01T09:31:53.054Z,980.24
2023-05-01T09:32:52.951Z,980.23
2023-05-01T09:33:52.894Z,980.24
2023-05-01T09:34:52.887Z,980.27
2023-05-01T09:35:52.878Z,980.22
2023-05-01T09:36:52.880Z,980.24
2023-05-01T09:37:52.861Z,980.20
2023-05-01T09:38:52.845Z,980.18
2023-05-01T09:39:52.838Z,980.17
2023-05-01T09:40:52.824Z,980.18
2023-05-01T09:41:52.829Z,980.21
2023-05-01T09:42:52.827Z,980.18
2023-05-01T09:43:52.821Z,980.10
2023-05-01T09:44:52.794Z,980.14
2023-05-01T09:45:52.831Z,980.11
2023-05-01T09:46:52.777Z,980.15
2023-05-01T09:47:52.792Z,980.14
2023-05-01T09:48:52.757Z,980.06
2023-05-01T09:49:52.755Z,980.10
2023-05-01T09:50:52.737Z,980.06
2023-05-01T09:51:52.743Z,980.06
2023-05-01T09:52:52.716Z,980.05
2023-05-01T09:53:52.704Z,980.04
2023-05-01T09:54:52.716Z,980.05
2023-05-01T09:55:52.683Z,980.08
2023-05-01T09:56:52.688Z,980.03
2023-05-01T09:57:52.673Z,979.98
2023-05-01T09:58:52.662Z,979.98
2023-05-01T09:59:52.658Z,980.05
2023-05-01T10:00:52.702Z,980.07
2023-05-01T10:01:52.801Z,980.03
2023-05-01T10:02:52.739Z,980.07
2023-05-01T10:03:52.680Z,980.00
2023-05-01T10:04:52.608Z,979.99
2023-05-01T10:05:52.588Z,980.00
2023-05-01T10:06:52.629Z,979.93
2023-05-01T10:07:52.581Z,979.93
2023-05-01T10:08:52.593Z,979.94
2023-05-01T10:09:52.568Z,979.94
2023-05-01T10:10:52.537Z,979.95
2023-05-01T10:11:52.556Z,979.97
2023-05-01T10:12:52.523Z,979.96
2023-05-01T10:13:52.513Z,980.00
2023-05-01T10:14:52.542Z,979.99
2023-05-01T10:15:52.493Z,979.99
2023-05-01T10:16:52.693Z,979.95
2023-05-01T10:17:52.607Z,979.94
2023-05-01T10:18:52.466Z,979.92
2023-05-01T10:19:52.455Z,979.89
2023-05-01T10:20:52.457Z,979.90
2023-05-01T10:21:52.437Z,979.87
2023-05-01T10:22:52.424Z,979.81
2023-05-01T10:23:52.438Z,979.84
2023-05-01T10:24:52.575Z,979.73
2023-05-01T10:25:52.484Z,979.79
2023-05-01T10:26:52.395Z,979.74
2023-05-01T10:27:52.371Z,979.75
2023-05-01T10:28:52.361Z,979.70
2023-05-01T10:29:52.359Z,979.70
2023-05-01T10:30:52.374Z,979.63
2023-05-01T10:31:53.523Z,979.66
2023-05-01T10:32:52.346Z,979.65
2023-05-01T10:33:52.436Z,979.66
2023-05-01T10:34:52.296Z,979.67
2023-05-01T10:35:52.300Z,979.65
2023-05-01T10:36:52.297Z,979.61
2023-05-01T10:37:52.280Z,979.53
2023-05-01T10:38:52.322Z,979.61
2023-05-01T10:39:52.259Z,979.73
2023-05-01T10:40:52.257Z,979.69
2023-05-01T10:41:52.252Z,979.66
2023-05-01T10:42:52.233Z,979.58
2023-05-01T10:43:52.223Z,979.60
2023-05-01T10:44:52.236Z,979.58
2023-05-01T10:45:52.235Z,979.60
2023-05-01T10:46:52.217Z,979.61
2023-05-01T10:47:52.213Z,979.54
2023-05-01T10:48:52.392Z,979.54
2023-05-01T10:49:52.156Z,979.55
2023-05-01T10:50:52.150Z,979.56
2023-05-01T10:51:52.477Z,979.60
2023-05-01T10:52:52.134Z,979.62
2023-05-01T10:53:52.118Z,979.48
2023-05-01T10:54:52.137Z,979.55
2023-05-01T10:55:52.111Z,979.57
2023-05-01T10:56:52.254Z,979.54
2023-05-01T10:57:52.092Z,979.51
2023-05-01T10:58:52.084Z,979.51
2023-05-01T10:59:52.059Z,979.53
2023-05-01T11:00:52.051Z,979.47
2023-05-01T11:01:52.218Z,979.48
2023-05-01T11:02:52.094Z,979.48
2023-05-01T11:03:52.028Z,979.51
2023-05-01T11:04:52.176Z,979.46
2023-05-01T11:05:52.007Z,979.40
2023-05-01T11:06:52.027Z,979.51
2023-05-01T11:07:51.991Z,979.44
2023-05-01T11:08:51.976Z,979.41
2023-05-01T11:09:51.971Z,979.42
2023-05-01T11:10:52.013Z,979.40
2023-05-01T11:11:51.971Z,979.36
2023-05-01T11:12:52.167Z,979.35
2023-05-01T11:13:52.116Z,979.30
2023-05-01T11:14:51.985Z,979.26
2023-05-01T11:15:51.969Z,979.37
2023-05-01T11:16:51.947Z,979.32
2023-05-01T11:17:52.036Z,979.35
2023-05-01T11:18:51.989Z,979.27
2023-05-01T11:19:51.895Z,979.26
2023-05-01T11:20:51.860Z,979.31
2023-05-01T11:21:52.061Z,979.30
2023-05-01T11:22:51.850Z,979.32
2023-05-01T11:23:51.827Z,979.30
2023-05-01T11:24:51.816Z,979.22
2023-05-01T11:25:51.807Z,979.30
2023-05-01T11:26:51.803Z,979.32
2023-05-01T11:27:51.803Z,979.26
2023-05-01T11:28:51.780Z,979.26
2023-05-01T11:29:51.933Z,979.31
2023-05-01T11:30:51.766Z,979.28
2023-05-01T11:31:51.785Z,979.23
2023-05-01T11:32:51.885Z,979.25
2023-05-01T11:33:51.739Z,979.31
2023-05-01T11:34:51.719Z,979.29
2023-05-01T11:35:51.712Z,979.25
2023-05-01T11:36:52.305Z,979.18
2023-05-01T11:37:51.705Z,979.24
2023-05-01T11:38:51.743Z,979.17
2023-05-01T11:39:51.686Z,979.14
2023-05-01T11:40:51.674Z,979.17
2023-05-01T11:41:51.694Z,979.21
2023-05-01T11:42:51.665Z,979.20
2023-05-01T11:43:51.647Z,979.17
2023-05-01T11:44:51.626Z,979.12
2023-05-01T11:45:51.689Z,979.05
2023-05-01T11:46:51.609Z,979.10
2023-05-01T11:47:51.723Z,979.06
2023-05-01T11:48:51.593Z,979.08
2023-05-01T11:49:51.579Z,979.05
2023-05-01T11:50:51.581Z,979.02
2023-05-01T11:51:51.571Z,978.99
2023-05-01T11:52:51.566Z,979.04
2023-05-01T11:53:51.676Z,979.07
2023-05-01T11:54:51.534Z,979.14
2023-05-01T11:55:51.635Z,979.09
2023-05-01T11:56:51.513Z,979.13
2023-05-01T11:57:51.525Z,979.01
2023-05-01T11:58:51.498Z,979.04
2023-05-01T11:59:51.489Z,979.02
2023-05-01T12:00:51.564Z,979.05
2023-05-01T12:01:52.508Z,979.08
2023-05-01T12:02:51.652Z,979.02
2023-05-01T12:03:51.509Z,979.05
2023-05-01T12:04:51.581Z,978.94
2023-05-01T12:05:51.431Z,979.05
2023-05-01T12:06:51.546Z,978.91
2023-05-01T12:07:51.430Z,979.03
2023-05-01T12:08:51.424Z,978.97
2023-05-01T12:09:51.393Z,978.99
2023-05-01T12:10:51.382Z,978.94
2023-05-01T12:11:52.536Z,978.97
2023-05-01T12:12:52.387Z,978.96
2023-05-01T12:13:51.354Z,978.98
2023-05-01T12:14:51.342Z,978.88
2023-05-01T12:15:51.351Z,978.93
2023-05-01T12:16:51.347Z,978.89
2023-05-01T12:17:51.372Z,978.85
2023-05-01T12:18:51.379Z,978.91
2023-05-01T12:19:51.309Z,978.91
2023-05-01T12:20:51.351Z,978.97
2023-05-01T12:21:51.277Z,978.98
2023-05-01T12:22:51.279Z,978.91
2023-05-01T12:23:51.304Z,978.97
2023-05-01T12:24:51.256Z,978.98
2023-05-01T12:25:51.244Z,979.00
2023-05-01T12:26:51.309Z,978.94
2023-05-01T12:27:52.249Z,978.98
2023-05-01T12:28:51.214Z,978.97